KSVNKXNO

Guest
Details From KSVN - HUNTER AAF
To KXNO - NORTH AF AUX
Flight Number -
Tags decoded
Created
Modified
Stats Distance 99 nm / 183 km
Max Altitude 0 ft / 0 m
Waypoints 5
Social Downloads 2
Likes 0
Share VATSIM

Download

Looking for another format? Having issues loading an existing format? Contact us
Advertisement - Login to hide

Notes

Requested: KSVN SAV 9GA1 02SC ALD 99N KXNO Unmatched points: 9GA1 02SC

Route

KSVN SAV ALD 99N KXNO

ID Type Via Altitude Latitude Longitude Leg Dist Tot Dist Heading (true) Name
O KSVN APT - 0 ft / 0 m 32.01002˚ -81.14599˚ - 0 nm - HUNTER AAF
SAV VOR - 0 ft / 0 m 32.14625˚ -81.19911˚ 8 nm 8 nm 342° / 342° SAVANNAH VORTAC
ALD VOR - 0 ft / 0 m 33.01250˚ -81.29222˚ 52 nm 60 nm 355° / 355° ALLENDALE VOR
99N APT - 0 ft / 0 m 33.30453˚ -81.10841˚ 19 nm 80 nm 28° / 28° BAMBERG CO
O KXNO APT - 0 ft / 0 m 33.60993˚ -81.07862˚ 18 nm 99 nm 5° / 5° NORTH AF AUX

Altitude Profile

Advertisement - Login to hide

KSVN

Details ICAO KSVN (SVN)
Name HUNTER AAF
Region United States
Timezone America/New_York (UTC-5.0)
Stats Elevation 42 ft / 13 m (AMSL)
Location 32.010018° -81.145988°
Runways 1
Magnetic Variation 7.044° W

METAR

KSVN 151156Z AUTO 00000KT 10SM FEW200 FEW240 06/03 A3000 RMK AO2 SLP162 T00610034 10094 20061 53003 $

Decode

TAF

Not found

Departure Runways

ID Width Length Bearing (true) Bearing (mag) Surface Threshold Offset Overrun Length
10 200 ft / 61 m 11,355 ft / 3,461 m 92.19° 99.23° Asphalt 0 ft / 0 m 1,000 ft / 305 m
28 200 ft / 61 m 11,355 ft / 3,461 m 272.21° 279.25° Asphalt 0 ft / 0 m 1,000 ft / 305 m

KXNO

Details ICAO KXNO
Name NORTH AF AUX
Region United States
Timezone America/New_York (UTC-5.0)
Stats Elevation 321 ft / 98 m (AMSL)
Location 33.609930° -81.078621°
Runways 2
Magnetic Variation 7.339° W

METAR

KXNO 151156Z AUTO 32004KT 10SM CLR 03/02 A2999 RMK AO2 SLP160 T00340018 10076 20029 53002 $

Decode

TAF

Not found

Destination Runways

ID Width Length Bearing (true) Bearing (mag) Surface Threshold Offset Overrun Length
05 90 ft / 27 m 3,501 ft / 1,067 m 43.72° 51.06° Asphalt 0 ft / 0 m 0 ft / 0 m
06 150 ft / 46 m 9,996 ft / 3,047 m 53.49° 60.83° Asphalt 1,000 ft / 305 m 1,000 ft / 305 m
23 90 ft / 27 m 3,501 ft / 1,067 m 223.73° 231.07° Asphalt 0 ft / 0 m 300 ft / 91 m
24 150 ft / 46 m 9,996 ft / 3,047 m 233.50° 240.84° Asphalt 1,000 ft / 305 m 1,000 ft / 305 m